createdAt,value
2022-09-17T00:01:12.089Z,11.90
2022-09-17T00:03:41.601Z,11.90
2022-09-17T00:06:11.801Z,11.90
2022-09-17T00:08:41.524Z,11.90
2022-09-17T00:11:10.484Z,11.90
2022-09-17T00:13:38.675Z,11.90
2022-09-17T00:16:07.427Z,11.90
2022-09-17T00:18:37.053Z,11.90
2022-09-17T00:21:06.944Z,11.90
2022-09-17T00:23:35.170Z,11.90
2022-09-17T00:26:06.199Z,11.90
2022-09-17T00:28:34.338Z,11.90
2022-09-17T00:31:02.678Z,12.00
2022-09-17T00:33:30.898Z,12.00
2022-09-17T00:36:00.248Z,12.00
2022-09-17T00:38:29.936Z,12.00
2022-09-17T00:40:58.092Z,12.00
2022-09-17T00:43:41.573Z,12.00
2022-09-17T00:46:23.979Z,12.00
2022-09-17T00:48:52.895Z,12.10
2022-09-17T00:51:23.899Z,12.10
2022-09-17T00:53:53.380Z,12.10
2022-09-17T00:56:24.872Z,12.10
2022-09-17T00:58:53.317Z,12.10
2022-09-17T01:01:21.543Z,12.10
2022-09-17T01:03:49.696Z,12.10
2022-09-17T01:06:24.173Z,12.20
2022-09-17T01:09:06.418Z,12.20
2022-09-17T01:11:50.237Z,12.10
2022-09-17T01:14:28.445Z,12.10
2022-09-17T01:17:01.788Z,12.10
2022-09-17T01:20:18.297Z,12.10
2022-09-17T01:22:59.245Z,12.10
2022-09-17T01:25:33.225Z,12.10
2022-09-17T01:28:32.834Z,12.20
2022-09-17T01:31:25.180Z,12.10
2022-09-17T01:34:02.264Z,12.10
2022-09-17T01:36:46.924Z,12.10
2022-09-17T01:39:22.882Z,12.10
2022-09-17T01:41:55.126Z,12.10
2022-09-17T01:44:27.390Z,12.10
2022-09-17T01:46:58.761Z,12.10
2022-09-17T01:49:26.977Z,12.10
2022-09-17T01:51:55.139Z,12.10
2022-09-17T01:54:26.524Z,12.10
2022-09-17T01:56:58.393Z,12.10
2022-09-17T01:59:28.862Z,12.10
2022-09-17T02:02:02.105Z,12.10
2022-09-17T02:04:32.062Z,12.10
2022-09-17T02:07:03.489Z,12.10
2022-09-17T02:09:34.746Z,12.10
2022-09-17T02:12:04.702Z,12.10
2022-09-17T02:14:36.788Z,12.10
2022-09-17T02:17:10.766Z,12.20
2022-09-17T02:19:39.146Z,12.20
2022-09-17T02:22:13.532Z,12.20
2022-09-17T02:24:45.525Z,12.20
2022-09-17T02:27:19.984Z,12.10
2022-09-17T02:29:48.172Z,12.10
2022-09-17T02:32:17.698Z,12.10
2022-09-17T02:34:45.865Z,12.20
2022-09-17T02:37:13.948Z,12.20
2022-09-17T02:39:42.284Z,12.10
2022-09-17T02:42:19.744Z,12.20
2022-09-17T02:44:56.536Z,12.20
2022-09-17T02:47:54.107Z,12.10
2022-09-17T02:50:47.650Z,12.10
2022-09-17T02:53:32.390Z,12.10
2022-09-17T02:56:03.890Z,12.10
2022-09-17T02:58:34.767Z,12.10
2022-09-17T03:01:06.301Z,12.10
2022-09-17T03:03:39.062Z,12.10
2022-09-17T03:06:07.426Z,12.20
2022-09-17T03:08:38.191Z,12.10
2022-09-17T03:11:06.588Z,12.10
2022-09-17T03:13:35.059Z,12.10
2022-09-17T03:16:03.840Z,12.20
2022-09-17T03:18:32.198Z,12.20
2022-09-17T03:21:01.649Z,12.20
2022-09-17T03:23:29.837Z,12.20
2022-09-17T03:25:58.019Z,12.20
2022-09-17T03:28:26.575Z,12.20
2022-09-17T03:30:54.850Z,12.20
2022-09-17T03:33:22.981Z,12.20
2022-09-17T03:35:51.194Z,12.20
2022-09-17T03:38:20.687Z,12.20
2022-09-17T03:40:59.470Z,12.20
2022-09-17T03:43:27.648Z,12.20
2022-09-17T03:45:55.800Z,12.20
2022-09-17T03:48:24.044Z,12.20
2022-09-17T03:50:52.179Z,12.20
2022-09-17T03:53:21.660Z,12.30
2022-09-17T03:55:49.868Z,12.30
2022-09-17T03:58:18.409Z,12.30
2022-09-17T04:00:46.489Z,12.30
2022-09-17T04:03:14.741Z,12.30
2022-09-17T04:05:42.954Z,12.30
2022-09-17T04:08:11.081Z,12.40
2022-09-17T04:10:40.518Z,12.40
2022-09-17T04:13:08.693Z,12.40
2022-09-17T04:15:36.939Z,12.40
2022-09-17T04:18:05.274Z,12.40
2022-09-17T04:20:33.400Z,12.40
2022-09-17T04:23:01.703Z,12.40
2022-09-17T04:25:31.085Z,12.40
2022-09-17T04:28:00.620Z,12.40
2022-09-17T04:30:28.808Z,12.40
2022-09-17T04:32:56.971Z,12.40
2022-09-17T04:35:25.151Z,12.40
2022-09-17T04:37:56.175Z,12.40
2022-09-17T04:40:24.667Z,12.40
2022-09-17T04:42:54.044Z,12.40
2022-09-17T04:45:23.662Z,12.40
2022-09-17T04:47:51.913Z,12.40
2022-09-17T04:50:20.073Z,12.40
2022-09-17T04:52:48.376Z,12.40
2022-09-17T04:55:17.269Z,12.50
2022-09-17T04:57:48.178Z,12.50
2022-09-17T05:00:17.654Z,12.40
2022-09-17T05:02:48.348Z,12.50
2022-09-17T05:05:16.989Z,12.50
2022-09-17T05:07:45.133Z,12.50
2022-09-17T05:10:14.173Z,12.50
2022-09-17T05:12:42.291Z,12.50
2022-09-17T05:15:11.392Z,12.50
2022-09-17T05:17:39.636Z,12.50
2022-09-17T05:20:10.402Z,12.50
2022-09-17T05:22:43.624Z,12.60
2022-09-17T05:25:12.380Z,12.60
2022-09-17T05:27:40.620Z,12.60
2022-09-17T05:30:09.840Z,12.60
2022-09-17T05:32:39.032Z,12.60
2022-09-17T05:35:09.926Z,12.60
2022-09-17T05:37:38.093Z,12.70
2022-09-17T05:40:08.057Z,12.70
2022-09-17T05:42:36.336Z,12.70
2022-09-17T05:45:05.429Z,12.70
2022-09-17T05:47:35.250Z,12.80
2022-09-17T05:50:03.438Z,12.80
2022-09-17T05:52:33.078Z,12.80
2022-09-17T05:55:01.344Z,12.90
2022-09-17T05:57:30.575Z,12.90
2022-09-17T05:59:58.786Z,12.90
2022-09-17T06:02:26.941Z,13.00
2022-09-17T06:04:55.630Z,13.00
2022-09-17T06:07:23.833Z,13.10
2022-09-17T06:09:53.393Z,13.10
2022-09-17T06:12:21.655Z,13.10
2022-09-17T06:14:49.847Z,13.20
2022-09-17T06:17:21.567Z,13.10
2022-09-17T06:19:50.493Z,13.10
2022-09-17T06:22:20.906Z,13.10
2022-09-17T06:24:48.992Z,13.00
2022-09-17T06:27:18.552Z,13.00
2022-09-17T06:29:46.764Z,13.10
2022-09-17T06:32:17.055Z,13.10
2022-09-17T06:34:45.241Z,13.10
2022-09-17T06:37:13.394Z,13.10
2022-09-17T06:39:41.528Z,13.20
2022-09-17T06:42:10.049Z,13.20
2022-09-17T06:44:40.045Z,13.20
2022-09-17T06:47:08.878Z,13.20
2022-09-17T06:49:37.045Z,13.30
2022-09-17T06:52:05.624Z,13.30
2022-09-17T06:54:33.815Z,13.40
2022-09-17T06:57:02.016Z,13.50
2022-09-17T06:59:30.110Z,13.60
2022-09-17T07:01:59.689Z,13.70
2022-09-17T07:04:27.829Z,13.80
2022-09-17T07:06:55.969Z,13.80
2022-09-17T07:09:24.338Z,13.90
2022-09-17T07:11:52.495Z,13.90
2022-09-17T07:14:21.140Z,13.90
2022-09-17T07:16:49.264Z,13.90
2022-09-17T07:19:18.768Z,13.80
2022-09-17T07:21:49.413Z,13.80
2022-09-17T07:24:17.513Z,13.70
2022-09-17T07:26:45.667Z,13.70
2022-09-17T07:29:13.813Z,13.70
2022-09-17T07:31:42.031Z,13.60
2022-09-17T07:34:11.271Z,13.60
2022-09-17T07:36:40.775Z,13.60
2022-09-17T07:39:09.698Z,13.60
2022-09-17T07:41:37.803Z,13.60
2022-09-17T07:44:06.865Z,13.60
2022-09-17T07:46:35.104Z,13.60
2022-09-17T07:49:03.509Z,13.70
2022-09-17T07:51:31.627Z,13.90
2022-09-17T07:54:02.348Z,14.00
2022-09-17T07:56:30.576Z,14.10
2022-09-17T07:58:58.909Z,14.20
2022-09-17T08:01:27.605Z,14.30
2022-09-17T08:03:55.899Z,14.40
2022-09-17T08:06:26.027Z,14.50
2022-09-17T08:08:54.155Z,14.50
2022-09-17T08:11:51.816Z,14.50
2022-09-17T08:14:14.813Z,14.50
2022-09-17T08:16:43.180Z,14.50
2022-09-17T08:19:11.619Z,14.50
2022-09-17T08:21:39.767Z,14.50
2022-09-17T08:24:08.360Z,14.50
2022-09-17T08:26:38.379Z,14.50
2022-09-17T08:29:07.397Z,14.60
2022-09-17T08:31:35.543Z,14.70
2022-09-17T08:34:03.745Z,14.80
2022-09-17T08:36:31.848Z,14.80
2022-09-17T08:38:59.996Z,14.80
2022-09-17T08:41:34.450Z,14.80
2022-09-17T08:44:14.988Z,14.90
2022-09-17T08:46:48.272Z,15.00
2022-09-17T08:49:25.243Z,15.00
2022-09-17T08:52:25.350Z,15.10
2022-09-17T08:55:00.686Z,15.10
2022-09-17T08:57:32.959Z,15.20
2022-09-17T09:00:07.675Z,15.30
2022-09-17T09:02:51.285Z,15.30
2022-09-17T09:05:21.183Z,15.40
2022-09-17T09:07:51.663Z,15.40
2022-09-17T09:10:23.579Z,15.40
2022-09-17T09:12:52.270Z,15.40
2022-09-17T09:15:38.211Z,15.50
2022-09-17T09:18:16.321Z,15.60
2022-09-17T09:20:49.697Z,15.70
2022-09-17T09:23:21.523Z,15.60
2022-09-17T09:25:56.433Z,15.50
2022-09-17T09:29:05.894Z,15.40
2022-09-17T09:31:56.314Z,15.40
2022-09-17T09:34:24.855Z,15.40
2022-09-17T09:36:53.297Z,15.30
2022-09-17T09:39:23.844Z,15.30
2022-09-17T09:41:54.455Z,15.40
2022-09-17T09:44:24.484Z,15.60
2022-09-17T09:47:26.389Z,15.90
2022-09-17T09:50:06.590Z,16.00
2022-09-17T09:52:45.588Z,16.20
2022-09-17T09:55:27.031Z,16.40
2022-09-17T09:57:57.954Z,16.30
2022-09-17T10:00:29.664Z,16.20
2022-09-17T10:03:05.341Z,16.20
2022-09-17T10:05:33.541Z,16.20
2022-09-17T10:08:01.986Z,16.10
2022-09-17T10:10:30.101Z,15.90
2022-09-17T10:13:08.252Z,15.90
2022-09-17T10:15:36.564Z,15.70
2022-09-17T10:18:19.035Z,15.60
2022-09-17T10:21:01.106Z,15.50
2022-09-17T10:23:31.719Z,15.40
2022-09-17T10:25:59.795Z,15.20
2022-09-17T10:28:38.824Z,15.10
2022-09-17T10:31:10.458Z,15.10
2022-09-17T10:33:51.632Z,15.20
2022-09-17T10:36:37.948Z,15.40
2022-09-17T10:39:23.768Z,15.70
2022-09-17T10:41:55.435Z,16.00
2022-09-17T10:44:25.328Z,16.30
2022-09-17T10:46:53.576Z,16.50
2022-09-17T10:49:39.136Z,16.70
2022-09-17T10:52:24.333Z,16.80
2022-09-17T10:55:13.477Z,16.70
2022-09-17T10:58:03.237Z,16.60
2022-09-17T11:00:37.474Z,16.30
2022-09-17T11:03:30.302Z,16.00
2022-09-17T11:06:46.870Z,15.80
2022-09-17T11:09:25.787Z,15.60
2022-09-17T11:12:04.654Z,15.60
2022-09-17T11:14:50.753Z,15.40
2022-09-17T11:17:46.738Z,15.50
2022-09-17T11:20:24.618Z,15.60
2022-09-17T11:23:02.834Z,15.70
2022-09-17T11:25:42.221Z,15.80
2022-09-17T11:28:27.790Z,15.90
2022-09-17T11:31:06.543Z,15.80
2022-09-17T11:34:00.466Z,15.80
2022-09-17T11:36:31.615Z,15.80
2022-09-17T11:39:05.576Z,15.80
2022-09-17T11:41:44.981Z,15.80
2022-09-17T11:44:17.198Z,15.80
2022-09-17T11:46:47.489Z,15.90
2022-09-17T11:49:23.396Z,16.10
2022-09-17T11:51:54.038Z,16.20
2022-09-17T11:54:26.114Z,16.30
2022-09-17T11:56:55.495Z,16.30
2022-09-17T11:59:28.015Z,16.40
2022-09-17T12:01:59.020Z,16.30
2022-09-17T12:04:41.775Z,16.30
2022-09-17T12:07:23.331Z,16.20
2022-09-17T12:09:56.584Z,16.30
2022-09-17T12:12:48.342Z,16.40
2022-09-17T12:15:19.076Z,16.70
2022-09-17T12:17:59.990Z,16.90
2022-09-17T12:20:38.375Z,17.00
2022-09-17T12:23:07.963Z,17.10
2022-09-17T12:25:41.272Z,17.00
2022-09-17T12:28:12.408Z,16.90
2022-09-17T12:30:41.994Z,16.80
2022-09-17T12:33:17.439Z,16.70
2022-09-17T12:36:42.641Z,16.80
2022-09-17T12:39:44.131Z,16.90
2022-09-17T12:42:23.776Z,16.90
2022-09-17T12:45:05.085Z,16.70
2022-09-17T12:48:03.049Z,16.40
2022-09-17T12:50:40.792Z,16.20
2022-09-17T12:53:17.070Z,16.10
2022-09-17T12:56:05.895Z,16.20
2022-09-17T12:58:50.694Z,16.20
2022-09-17T13:01:22.720Z,16.40
2022-09-17T13:03:53.635Z,16.60
2022-09-17T13:06:46.717Z,16.80
2022-09-17T13:10:00.230Z,17.00
2022-09-17T13:12:32.664Z,17.20
2022-09-17T13:18:13.180Z,17.30
2022-09-17T13:21:01.938Z,17.20
2022-09-17T13:23:36.996Z,17.10
2022-09-17T13:26:08.090Z,16.90
2022-09-17T13:31:51.466Z,16.60
2022-09-17T13:34:30.336Z,16.50
2022-09-17T13:36:59.493Z,16.60
2022-09-17T13:39:42.723Z,16.70
2022-09-17T13:42:17.287Z,16.80
2022-09-17T13:44:49.337Z,17.00
2022-09-17T13:47:25.825Z,17.20
2022-09-17T13:49:58.697Z,17.30
2022-09-17T13:52:36.286Z,17.20
2022-09-17T13:55:05.054Z,17.20
2022-09-17T13:57:34.453Z,17.10
2022-09-17T14:00:03.570Z,16.90
2022-09-17T14:02:39.397Z,16.80
2022-09-17T14:05:32.528Z,16.70
2022-09-17T14:08:30.549Z,16.90
2022-09-17T14:11:01.485Z,17.00
2022-09-17T14:13:46.060Z,17.20
2022-09-17T14:16:48.640Z,17.40
2022-09-17T14:19:36.951Z,17.50
2022-09-17T14:22:16.848Z,17.70
2022-09-17T14:24:50.231Z,17.70
2022-09-17T14:27:50.163Z,17.70
2022-09-17T14:30:20.168Z,17.70
2022-09-17T14:32:54.997Z,17.80
2022-09-17T14:35:31.065Z,17.80
2022-09-17T14:38:00.414Z,17.90
2022-09-17T14:40:29.178Z,17.90
2022-09-17T14:42:58.594Z,17.90
2022-09-17T14:45:30.258Z,17.90
2022-09-17T14:48:25.477Z,17.90
2022-09-17T14:50:55.128Z,17.90
2022-09-17T14:53:23.341Z,17.90
2022-09-17T14:55:51.599Z,17.80
2022-09-17T14:58:38.789Z,17.70
2022-09-17T15:01:07.506Z,17.70
2022-09-17T15:03:35.755Z,17.60
2022-09-17T15:06:05.578Z,17.60
2022-09-17T15:08:34.077Z,17.50
2022-09-17T15:11:03.618Z,17.40
2022-09-17T15:13:33.304Z,17.20
2022-09-17T15:16:03.945Z,16.90
2022-09-17T15:18:39.020Z,16.70
2022-09-17T15:21:23.611Z,16.60
2022-09-17T15:23:52.660Z,16.40
2022-09-17T15:26:24.013Z,16.10
2022-09-17T15:28:52.212Z,16.00
2022-09-17T15:31:20.628Z,15.90
2022-09-17T15:33:48.932Z,15.80
2022-09-17T15:36:22.394Z,15.70
2022-09-17T15:38:50.694Z,15.60
2022-09-17T15:41:35.197Z,15.50
2022-09-17T15:44:29.677Z,15.40
2022-09-17T15:47:38.281Z,15.30
2022-09-17T15:50:16.711Z,15.20
2022-09-17T15:52:46.384Z,15.10
2022-09-17T15:55:35.615Z,15.00
2022-09-17T15:58:05.819Z,14.90
2022-09-17T16:00:34.080Z,14.90
2022-09-17T16:03:55.507Z,14.80
2022-09-17T16:06:39.972Z,14.80
2022-09-17T16:09:41.557Z,14.60
2022-09-17T16:12:11.930Z,14.50
2022-09-17T16:14:40.162Z,14.40
2022-09-17T16:17:25.625Z,14.30
2022-09-17T16:19:54.833Z,14.30
2022-09-17T16:22:23.168Z,14.20
2022-09-17T16:24:52.651Z,14.10
2022-09-17T16:27:24.495Z,14.00
2022-09-17T16:29:52.974Z,14.00
2022-09-17T16:32:21.423Z,14.00
2022-09-17T16:34:49.600Z,14.00
2022-09-17T16:37:17.954Z,13.80
2022-09-17T16:39:46.078Z,13.70
2022-09-17T16:42:15.616Z,13.70
2022-09-17T16:44:43.933Z,13.60
2022-09-17T16:47:12.069Z,13.50
2022-09-17T16:49:40.164Z,13.50
2022-09-17T16:52:08.322Z,13.40
2022-09-17T16:54:36.567Z,13.30
2022-09-17T16:57:04.935Z,13.30
2022-09-17T16:59:34.470Z,13.20
2022-09-17T17:02:02.641Z,13.20
2022-09-17T17:04:30.800Z,13.20
2022-09-17T17:06:58.985Z,13.10
2022-09-17T17:09:27.657Z,13.10
2022-09-17T17:11:56.139Z,13.00
2022-09-17T17:14:24.446Z,13.00
2022-09-17T17:16:54.320Z,12.90
2022-09-17T17:19:23.292Z,12.80
2022-09-17T17:21:51.564Z,12.80
2022-09-17T17:24:20.692Z,12.80
2022-09-17T17:26:49.456Z,12.70
2022-09-17T17:29:17.967Z,12.70
2022-09-17T17:31:46.180Z,12.70
2022-09-17T17:34:15.890Z,12.70
2022-09-17T17:36:44.053Z,12.60
2022-09-17T17:39:12.671Z,12.50
2022-09-17T17:41:40.869Z,12.40
2022-09-17T17:44:12.513Z,12.30
2022-09-17T17:46:40.793Z,12.30
2022-09-17T17:49:09.149Z,12.20
2022-09-17T17:51:38.620Z,12.20
2022-09-17T17:54:07.968Z,12.20
2022-09-17T17:56:36.111Z,12.20
2022-09-17T17:59:04.358Z,12.20
2022-09-17T18:01:34.946Z,12.20
2022-09-17T18:04:05.226Z,12.20
2022-09-17T18:06:33.452Z,12.20
2022-09-17T18:09:03.396Z,12.20
2022-09-17T18:11:31.574Z,12.20
2022-09-17T18:14:00.893Z,12.20
2022-09-17T18:16:29.321Z,12.20
2022-09-17T18:18:58.281Z,12.20
2022-09-17T18:21:26.896Z,12.20
2022-09-17T18:23:55.133Z,12.10
2022-09-17T18:26:26.170Z,12.10
2022-09-17T18:28:54.651Z,12.00
2022-09-17T18:31:24.199Z,12.00
2022-09-17T18:33:57.585Z,12.00
2022-09-17T18:36:26.081Z,12.00
2022-09-17T18:38:56.462Z,12.00
2022-09-17T18:41:25.979Z,11.90
2022-09-17T18:43:54.088Z,11.90
2022-09-17T18:46:22.356Z,11.90
2022-09-17T18:48:53.166Z,11.90
2022-09-17T18:51:21.418Z,11.90
2022-09-17T18:53:51.590Z,11.90
2022-09-17T18:56:21.491Z,11.90
2022-09-17T18:58:55.006Z,11.90
2022-09-17T19:01:24.940Z,11.90
2022-09-17T19:03:54.117Z,11.90
2022-09-17T19:06:22.268Z,11.90
2022-09-17T19:08:50.657Z,11.90
2022-09-17T19:11:18.917Z,11.80
2022-09-17T19:13:49.115Z,11.70
2022-09-17T19:16:18.687Z,11.70
2022-09-17T19:18:46.925Z,11.70
2022-09-17T19:21:16.695Z,11.60
2022-09-17T19:23:46.645Z,11.60
2022-09-17T19:26:16.872Z,11.50
2022-09-17T19:28:45.136Z,11.50
2022-09-17T19:31:14.595Z,11.60
2022-09-17T19:33:44.256Z,11.50
2022-09-17T19:36:13.776Z,11.50
2022-09-17T19:38:41.999Z,11.50
2022-09-17T19:41:13.100Z,11.50
2022-09-17T19:43:41.252Z,11.50
2022-09-17T19:46:11.448Z,11.50
2022-09-17T19:48:45.982Z,11.40
2022-09-17T19:51:14.503Z,11.40
2022-09-17T19:53:42.700Z,11.40
2022-09-17T19:56:12.096Z,11.30
2022-09-17T19:58:40.313Z,11.40
2022-09-17T20:01:08.556Z,11.40
2022-09-17T20:03:36.776Z,11.40
2022-09-17T20:06:08.558Z,11.40
2022-09-17T20:08:40.943Z,11.30
2022-09-17T20:11:11.729Z,11.30
2022-09-17T20:13:39.957Z,11.30
2022-09-17T20:16:09.039Z,11.30
2022-09-17T20:18:37.347Z,11.30
2022-09-17T20:21:10.379Z,11.40
2022-09-17T20:23:38.889Z,11.40
2022-09-17T20:26:07.312Z,11.40
2022-09-17T20:28:35.503Z,11.40
2022-09-17T20:31:04.647Z,11.40
2022-09-17T20:33:33.100Z,11.40
2022-09-17T20:36:01.847Z,11.40
2022-09-17T20:41:19.865Z,11.40
2022-09-17T20:43:50.280Z,11.40
2022-09-17T20:46:18.578Z,11.40
2022-09-17T20:48:47.084Z,11.40
2022-09-17T20:51:19.784Z,11.40
2022-09-17T20:53:49.404Z,11.50
2022-09-17T20:56:21.258Z,11.50
2022-09-17T20:58:56.472Z,11.60
2022-09-17T21:01:32.274Z,11.50
2022-09-17T21:04:01.467Z,11.60
2022-09-17T21:06:30.837Z,11.50
2022-09-17T21:09:01.101Z,11.60
2022-09-17T21:11:30.126Z,11.60
2022-09-17T21:13:58.226Z,11.60
2022-09-17T21:16:26.584Z,11.60
2022-09-17T21:18:57.012Z,11.60
2022-09-17T21:21:25.209Z,11.60
2022-09-17T21:23:53.630Z,11.60
2022-09-17T21:26:24.254Z,11.60
2022-09-17T21:28:53.467Z,11.60
2022-09-17T21:31:23.101Z,11.70
2022-09-17T21:33:54.582Z,11.70
2022-09-17T21:36:23.921Z,11.70
2022-09-17T21:38:55.248Z,11.70
2022-09-17T21:41:25.177Z,11.80
2022-09-17T21:43:53.337Z,11.80
2022-09-17T21:46:22.915Z,11.80
2022-09-17T21:48:51.945Z,11.70
2022-09-17T21:51:21.253Z,11.70
2022-09-17T21:53:51.621Z,11.70
2022-09-17T21:56:20.342Z,11.70
2022-09-17T21:58:53.137Z,11.70
2022-09-17T22:01:23.120Z,11.70
2022-09-17T22:03:51.431Z,11.70
2022-09-17T22:06:21.403Z,11.70
2022-09-17T22:08:49.866Z,11.70
2022-09-17T22:11:19.658Z,11.60
2022-09-17T22:13:54.653Z,11.60
2022-09-17T22:16:23.275Z,11.60
2022-09-17T22:18:52.307Z,11.60
2022-09-17T22:21:22.444Z,11.70
2022-09-17T22:23:51.098Z,11.60
2022-09-17T22:26:19.458Z,11.60
2022-09-17T22:28:49.129Z,11.70
2022-09-17T22:31:17.549Z,11.70
2022-09-17T22:33:47.125Z,11.70
2022-09-17T22:36:16.402Z,11.70
2022-09-17T22:38:48.148Z,11.70
2022-09-17T22:41:18.719Z,11.70
2022-09-17T22:43:47.271Z,11.70
2022-09-17T22:46:19.521Z,11.70
2022-09-17T22:48:48.179Z,11.70
2022-09-17T22:51:16.629Z,11.70
2022-09-17T22:53:44.980Z,11.70
2022-09-17T22:56:16.067Z,11.70
2022-09-17T22:58:44.400Z,11.80
2022-09-17T23:01:15.543Z,11.80
2022-09-17T23:03:45.408Z,11.80
2022-09-17T23:06:15.088Z,11.80
2022-09-17T23:08:43.401Z,11.80
2022-09-17T23:11:17.533Z,11.80
2022-09-17T23:13:45.714Z,11.80
2022-09-17T23:16:14.115Z,11.80
2022-09-17T23:18:43.791Z,11.80
2022-09-17T23:21:14.211Z,11.80
2022-09-17T23:23:42.742Z,11.80
2022-09-17T23:26:13.468Z,11.80
2022-09-17T23:28:41.711Z,11.90
2022-09-17T23:31:10.339Z,11.90
2022-09-17T23:33:38.668Z,11.90
2022-09-17T23:36:10.085Z,11.90
2022-09-17T23:38:38.246Z,11.90
2022-09-17T23:41:11.774Z,11.90
2022-09-17T23:43:39.988Z,11.90
2022-09-17T23:46:08.188Z,11.90
2022-09-17T23:48:36.612Z,11.90
2022-09-17T23:51:05.261Z,11.90
2022-09-17T23:53:35.566Z,11.90
2022-09-17T23:56:04.368Z,11.90
2022-09-17T23:58:33.020Z,11.90
